This is the latest recevied weather packets stored in our database for station/object HA9MJ-10. If no packets are shown the sender has not sent any weather packets the latest 10 day(s).
| Time | Temp. | Humidity | Pressure | Rain* | Wind** | Luminosity | Snow |
|---|---|---|---|---|---|---|---|
| 1777806211 | 21.11° C | 40% | 1021.6 hPa | - | - | - | - |
| 1777802611 | 21.11° C | 41% | 1022.3 hPa | - | - | - | - |
| 1777799011 | 21.67° C | 40% | 1022.8 hPa | - | - | - | - |
| 1777795410 | 21.67° C | 42% | 1023 hPa | - | - | - | - |
| 1777791810 | 21.67° C | 43% | 1023 hPa | - | - | - | - |
| 1777788210 | 21.67° C | 44% | 1022.9 hPa | - | - | - | - |
| 1777784610 | 21.67° C | 44% | 1022.7 hPa | - | - | - | - |
| 1777781010 | 21.67° C | 43% | 1022.5 hPa | - | - | - | - |
| 1777777410 | 21.67° C | 43% | 1022.2 hPa | - | - | - | - |
| 1777773809 | 21.67° C | 43% | 1022 hPa | - | - | - | - |
| 1777770209 | 22.22° C | 43% | 1021.9 hPa | - | - | - | - |
| 1777766609 | 22.22° C | 43% | 1021.7 hPa | - | - | - | - |
| 1777763009 | 22.78° C | 42% | 1021.9 hPa | - | - | - | - |
| 1777759409 | 22.78° C | 42% | 1022.1 hPa | - | - | - | - |
| 1777755809 | 23.33° C | 41% | 1021.5 hPa | - | - | - | - |
| 1777752208 | 23.89° C | 40% | 1021.3 hPa | - | - | - | - |
| 1777748608 | 25° C | 37% | 1020.9 hPa | - | - | - | - |
| 1777745008 | 26.11° C | 34% | 1020.3 hPa | - | - | - | - |
| 1777741408 | 27.22° C | 30% | 1019.8 hPa | - | - | - | - |
| 1777737807 | 24.44° C | 31% | 1020 hPa | - | - | - | - |
| 1777734207 | 20° C | 36% | 1020.7 hPa | - | - | - | - |
| 1777733601 | 20.56° C | 34% | 1020.7 hPa | - | - | - | - |
| 1777730469 | 20° C | 33% | 1021.1 hPa | - | - | - | - |
| 1777726876 | 20° C | 34% | 1021.6 hPa | - | - | - | - |
| 1777726869 | 20° C | 34% | 1021.6 hPa | - | - | - | - |
* Rain since midnight (hover to see other rain measurements)
** Current wind speed in m/s (hover to see current wind gust speed)